sensor_id;sensor_type;location;lat;lon;timestamp;temperature;humidity
23237;DHT22;11787;52.018;8.570;2023-08-08T00:01:30;13.20;99.90
23237;DHT22;11787;52.018;8.570;2023-08-08T00:03:56;13.20;99.90
23237;DHT22;11787;52.018;8.570;2023-08-08T00:06:21;13.20;99.90
23237;DHT22;11787;52.018;8.570;2023-08-08T00:08:47;13.20;99.90
23237;DHT22;11787;52.018;8.570;2023-08-08T00:11:13;13.20;99.90
23237;DHT22;11787;52.018;8.570;2023-08-08T00:13:38;13.20;99.90
23237;DHT22;11787;52.018;8.570;2023-08-08T00:16:04;13.20;99.90
23237;DHT22;11787;52.018;8.570;2023-08-08T00:18:30;13.20;99.90
23237;DHT22;11787;52.018;8.570;2023-08-08T00:20:56;13.20;99.90
23237;DHT22;11787;52.018;8.570;2023-08-08T00:23:21;13.20;99.90
23237;DHT22;11787;52.018;8.570;2023-08-08T00:25:47;13.20;99.90
23237;DHT22;11787;52.018;8.570;2023-08-08T00:28:15;13.20;99.90
23237;DHT22;11787;52.018;8.570;2023-08-08T00:30:41;13.20;99.90
23237;DHT22;11787;52.018;8.570;2023-08-08T00:33:07;13.30;99.90
23237;DHT22;11787;52.018;8.570;2023-08-08T00:35:32;13.30;99.90
23237;DHT22;11787;52.018;8.570;2023-08-08T00:37:58;13.30;99.90
23237;DHT22;11787;52.018;8.570;2023-08-08T00:40:24;13.30;99.90
23237;DHT22;11787;52.018;8.570;2023-08-08T00:42:49;13.40;99.90
23237;DHT22;11787;52.018;8.570;2023-08-08T00:45:15;13.30;99.90
23237;DHT22;11787;52.018;8.570;2023-08-08T00:47:40;13.40;99.90
23237;DHT22;11787;52.018;8.570;2023-08-08T00:50:07;13.40;99.90
23237;DHT22;11787;52.018;8.570;2023-08-08T00:52:34;13.40;99.90
23237;DHT22;11787;52.018;8.570;2023-08-08T00:54:59;13.40;99.90
23237;DHT22;11787;52.018;8.570;2023-08-08T00:57:25;13.40;99.90
23237;DHT22;11787;52.018;8.570;2023-08-08T00:59:51;13.40;99.90
23237;DHT22;11787;52.018;8.570;2023-08-08T01:02:17;13.40;99.90
23237;DHT22;11787;52.018;8.570;2023-08-08T01:04:42;13.50;99.90
23237;DHT22;11787;52.018;8.570;2023-08-08T01:07:33;13.50;99.90
23237;DHT22;11787;52.018;8.570;2023-08-08T01:10:34;13.50;99.90
23237;DHT22;11787;52.018;8.570;2023-08-08T01:13:12;13.50;99.90
23237;DHT22;11787;52.018;8.570;2023-08-08T01:15:39;13.60;99.90
23237;DHT22;11787;52.018;8.570;2023-08-08T01:18:07;13.60;99.90
23237;DHT22;11787;52.018;8.570;2023-08-08T01:20:34;13.60;99.90
23237;DHT22;11787;52.018;8.570;2023-08-08T01:23:19;13.60;99.90
23237;DHT22;11787;52.018;8.570;2023-08-08T01:25:49;13.60;99.90
23237;DHT22;11787;52.018;8.570;2023-08-08T01:28:15;13.60;99.90
23237;DHT22;11787;52.018;8.570;2023-08-08T01:30:41;13.70;99.90
23237;DHT22;11787;52.018;8.570;2023-08-08T01:33:08;13.60;99.90
23237;DHT22;11787;52.018;8.570;2023-08-08T01:35:37;13.70;99.90
23237;DHT22;11787;52.018;8.570;2023-08-08T01:38:17;13.60;99.90
23237;DHT22;11787;52.018;8.570;2023-08-08T01:40:44;13.70;99.90
23237;DHT22;11787;52.018;8.570;2023-08-08T01:43:10;13.70;99.90
23237;DHT22;11787;52.018;8.570;2023-08-08T01:45:37;13.70;99.90
23237;DHT22;11787;52.018;8.570;2023-08-08T01:48:07;13.70;99.90
23237;DHT22;11787;52.018;8.570;2023-08-08T01:50:33;13.70;99.90
23237;DHT22;11787;52.018;8.570;2023-08-08T01:52:59;13.80;99.90
23237;DHT22;11787;52.018;8.570;2023-08-08T01:55:25;13.80;99.90
23237;DHT22;11787;52.018;8.570;2023-08-08T01:57:50;13.80;99.90
23237;DHT22;11787;52.018;8.570;2023-08-08T02:00:16;13.70;99.90
23237;DHT22;11787;52.018;8.570;2023-08-08T02:02:41;13.80;99.90
23237;DHT22;11787;52.018;8.570;2023-08-08T02:05:07;13.70;99.90
23237;DHT22;11787;52.018;8.570;2023-08-08T02:07:33;13.80;99.90
23237;DHT22;11787;52.018;8.570;2023-08-08T02:09:58;13.80;99.90
23237;DHT22;11787;52.018;8.570;2023-08-08T02:12:24;13.80;99.90
23237;DHT22;11787;52.018;8.570;2023-08-08T02:14:49;13.80;99.90
23237;DHT22;11787;52.018;8.570;2023-08-08T02:17:15;13.80;99.90
23237;DHT22;11787;52.018;8.570;2023-08-08T02:19:40;13.80;99.90
23237;DHT22;11787;52.018;8.570;2023-08-08T02:22:06;13.80;99.90
23237;DHT22;11787;52.018;8.570;2023-08-08T02:24:32;13.80;99.90
23237;DHT22;11787;52.018;8.570;2023-08-08T02:26:57;13.80;99.90
23237;DHT22;11787;52.018;8.570;2023-08-08T02:29:23;13.80;99.90
23237;DHT22;11787;52.018;8.570;2023-08-08T02:31:48;13.80;99.90
23237;DHT22;11787;52.018;8.570;2023-08-08T02:34:14;13.70;99.90
23237;DHT22;11787;52.018;8.570;2023-08-08T02:36:39;13.70;99.90
23237;DHT22;11787;52.018;8.570;2023-08-08T02:39:05;13.70;99.90
23237;DHT22;11787;52.018;8.570;2023-08-08T02:41:31;13.70;99.90
23237;DHT22;11787;52.018;8.570;2023-08-08T02:43:56;13.70;99.90
23237;DHT22;11787;52.018;8.570;2023-08-08T02:46:22;13.70;99.90
23237;DHT22;11787;52.018;8.570;2023-08-08T02:48:47;13.70;99.90
23237;DHT22;11787;52.018;8.570;2023-08-08T02:51:13;13.60;99.90
23237;DHT22;11787;52.018;8.570;2023-08-08T02:53:39;13.60;99.90
23237;DHT22;11787;52.018;8.570;2023-08-08T02:56:04;13.60;99.90
23237;DHT22;11787;52.018;8.570;2023-08-08T02:58:30;13.60;99.90
23237;DHT22;11787;52.018;8.570;2023-08-08T03:00:55;13.50;99.90
23237;DHT22;11787;52.018;8.570;2023-08-08T03:03:21;13.40;99.90
23237;DHT22;11787;52.018;8.570;2023-08-08T03:05:47;13.50;99.90
23237;DHT22;11787;52.018;8.570;2023-08-08T03:08:12;13.50;99.90
23237;DHT22;11787;52.018;8.570;2023-08-08T03:10:38;13.50;99.90
23237;DHT22;11787;52.018;8.570;2023-08-08T03:13:03;13.40;99.90
23237;DHT22;11787;52.018;8.570;2023-08-08T03:15:29;13.40;99.90
23237;DHT22;11787;52.018;8.570;2023-08-08T03:17:54;13.40;99.90
23237;DHT22;11787;52.018;8.570;2023-08-08T03:20:21;13.30;99.90
23237;DHT22;11787;52.018;8.570;2023-08-08T03:22:46;13.30;99.90
23237;DHT22;11787;52.018;8.570;2023-08-08T03:25:12;13.30;99.90
23237;DHT22;11787;52.018;8.570;2023-08-08T03:27:37;13.30;99.90
23237;DHT22;11787;52.018;8.570;2023-08-08T03:30:03;13.30;99.90
23237;DHT22;11787;52.018;8.570;2023-08-08T03:32:29;13.30;99.90
23237;DHT22;11787;52.018;8.570;2023-08-08T03:34:55;13.30;99.90
23237;DHT22;11787;52.018;8.570;2023-08-08T03:37:20;13.30;99.90
23237;DHT22;11787;52.018;8.570;2023-08-08T03:39:46;13.30;99.90
23237;DHT22;11787;52.018;8.570;2023-08-08T03:42:12;13.30;99.90
23237;DHT22;11787;52.018;8.570;2023-08-08T03:44:37;13.20;99.90
23237;DHT22;11787;52.018;8.570;2023-08-08T03:47:03;13.30;99.90
23237;DHT22;11787;52.018;8.570;2023-08-08T03:49:29;13.30;99.90
23237;DHT22;11787;52.018;8.570;2023-08-08T03:51:54;13.30;99.90
23237;DHT22;11787;52.018;8.570;2023-08-08T03:54:20;13.30;99.90
23237;DHT22;11787;52.018;8.570;2023-08-08T03:56:45;13.30;99.90
23237;DHT22;11787;52.018;8.570;2023-08-08T03:59:11;13.30;99.90
23237;DHT22;11787;52.018;8.570;2023-08-08T04:01:36;13.30;99.90
23237;DHT22;11787;52.018;8.570;2023-08-08T04:04:03;13.40;99.90
23237;DHT22;11787;52.018;8.570;2023-08-08T04:06:29;13.30;99.90
23237;DHT22;11787;52.018;8.570;2023-08-08T04:08:55;13.30;99.90
23237;DHT22;11787;52.018;8.570;2023-08-08T04:11:20;13.30;99.90
23237;DHT22;11787;52.018;8.570;2023-08-08T04:13:46;13.30;99.90
23237;DHT22;11787;52.018;8.570;2023-08-08T04:16:12;13.40;99.90
23237;DHT22;11787;52.018;8.570;2023-08-08T04:18:37;13.40;99.90
23237;DHT22;11787;52.018;8.570;2023-08-08T04:21:03;13.40;99.90
23237;DHT22;11787;52.018;8.570;2023-08-08T04:23:29;13.40;99.90
23237;DHT22;11787;52.018;8.570;2023-08-08T04:25:54;13.40;99.90
23237;DHT22;11787;52.018;8.570;2023-08-08T04:28:20;13.50;99.90
23237;DHT22;11787;52.018;8.570;2023-08-08T04:30:46;13.50;99.90
23237;DHT22;11787;52.018;8.570;2023-08-08T04:33:11;13.50;99.90
23237;DHT22;11787;52.018;8.570;2023-08-08T04:35:37;13.50;99.90
23237;DHT22;11787;52.018;8.570;2023-08-08T04:38:03;13.60;99.90
23237;DHT22;11787;52.018;8.570;2023-08-08T04:40:29;13.60;99.90
23237;DHT22;11787;52.018;8.570;2023-08-08T04:42:55;13.60;99.90
23237;DHT22;11787;52.018;8.570;2023-08-08T04:45:21;13.60;99.90
23237;DHT22;11787;52.018;8.570;2023-08-08T04:47:47;13.60;99.90
23237;DHT22;11787;52.018;8.570;2023-08-08T04:50:13;13.60;99.90
23237;DHT22;11787;52.018;8.570;2023-08-08T04:52:38;13.60;99.90
23237;DHT22;11787;52.018;8.570;2023-08-08T04:55:05;13.70;99.90
23237;DHT22;11787;52.018;8.570;2023-08-08T04:57:31;13.70;99.90
23237;DHT22;11787;52.018;8.570;2023-08-08T04:59:56;13.70;99.90
23237;DHT22;11787;52.018;8.570;2023-08-08T05:02:22;13.70;99.90
23237;DHT22;11787;52.018;8.570;2023-08-08T05:04:48;13.70;99.90
23237;DHT22;11787;52.018;8.570;2023-08-08T05:07:13;13.70;99.90
23237;DHT22;11787;52.018;8.570;2023-08-08T05:09:39;13.80;99.90
23237;DHT22;11787;52.018;8.570;2023-08-08T05:12:06;13.80;99.90
23237;DHT22;11787;52.018;8.570;2023-08-08T05:14:31;13.80;99.90
23237;DHT22;11787;52.018;8.570;2023-08-08T05:16:57;13.90;99.90
23237;DHT22;11787;52.018;8.570;2023-08-08T05:19:22;13.90;99.90
23237;DHT22;11787;52.018;8.570;2023-08-08T05:21:49;13.90;99.90
23237;DHT22;11787;52.018;8.570;2023-08-08T05:24:15;14.00;99.90
23237;DHT22;11787;52.018;8.570;2023-08-08T05:26:40;13.90;99.90
23237;DHT22;11787;52.018;8.570;2023-08-08T05:29:06;14.00;99.90
23237;DHT22;11787;52.018;8.570;2023-08-08T05:31:31;14.00;99.90
23237;DHT22;11787;52.018;8.570;2023-08-08T05:33:57;14.00;99.90
23237;DHT22;11787;52.018;8.570;2023-08-08T05:36:23;14.10;99.90
23237;DHT22;11787;52.018;8.570;2023-08-08T05:38:49;14.00;99.90
23237;DHT22;11787;52.018;8.570;2023-08-08T05:41:14;14.00;99.90
23237;DHT22;11787;52.018;8.570;2023-08-08T05:43:40;14.10;99.90
23237;DHT22;11787;52.018;8.570;2023-08-08T05:46:05;14.10;99.90
23237;DHT22;11787;52.018;8.570;2023-08-08T05:48:31;14.10;99.90
23237;DHT22;11787;52.018;8.570;2023-08-08T05:50:56;14.10;99.90
23237;DHT22;11787;52.018;8.570;2023-08-08T05:53:24;14.10;99.90
23237;DHT22;11787;52.018;8.570;2023-08-08T05:55:49;14.10;99.90
23237;DHT22;11787;52.018;8.570;2023-08-08T05:58:15;14.10;99.90
23237;DHT22;11787;52.018;8.570;2023-08-08T06:00:40;14.20;99.90
23237;DHT22;11787;52.018;8.570;2023-08-08T06:03:06;14.20;99.90
23237;DHT22;11787;52.018;8.570;2023-08-08T06:05:32;14.40;99.90
23237;DHT22;11787;52.018;8.570;2023-08-08T06:07:57;14.50;99.90
23237;DHT22;11787;52.018;8.570;2023-08-08T06:10:23;14.70;99.90
23237;DHT22;11787;52.018;8.570;2023-08-08T06:12:50;14.70;99.90
23237;DHT22;11787;52.018;8.570;2023-08-08T06:15:15;14.80;99.90
23237;DHT22;11787;52.018;8.570;2023-08-08T06:17:41;14.80;99.90
23237;DHT22;11787;52.018;8.570;2023-08-08T06:20:06;14.80;99.90
23237;DHT22;11787;52.018;8.570;2023-08-08T06:22:34;14.80;99.90
23237;DHT22;11787;52.018;8.570;2023-08-08T06:24:59;14.80;99.90
23237;DHT22;11787;52.018;8.570;2023-08-08T06:27:25;14.90;99.90
23237;DHT22;11787;52.018;8.570;2023-08-08T06:29:50;14.80;99.90
23237;DHT22;11787;52.018;8.570;2023-08-08T06:32:16;14.80;99.90
23237;DHT22;11787;52.018;8.570;2023-08-08T06:34:42;14.90;99.90
23237;DHT22;11787;52.018;8.570;2023-08-08T06:37:07;14.80;99.90
23237;DHT22;11787;52.018;8.570;2023-08-08T06:39:33;14.70;99.90
23237;DHT22;11787;52.018;8.570;2023-08-08T06:41:59;14.80;99.90
23237;DHT22;11787;52.018;8.570;2023-08-08T06:44:24;14.90;99.90
23237;DHT22;11787;52.018;8.570;2023-08-08T06:46:50;15.20;99.90
23237;DHT22;11787;52.018;8.570;2023-08-08T06:49:16;15.20;99.90
23237;DHT22;11787;52.018;8.570;2023-08-08T06:51:41;15.20;99.90
23237;DHT22;11787;52.018;8.570;2023-08-08T06:54:07;15.20;99.90
23237;DHT22;11787;52.018;8.570;2023-08-08T06:56:33;15.20;99.90
23237;DHT22;11787;52.018;8.570;2023-08-08T06:58:58;15.30;99.90
23237;DHT22;11787;52.018;8.570;2023-08-08T07:01:24;15.40;99.90
23237;DHT22;11787;52.018;8.570;2023-08-08T07:03:49;15.30;99.90
23237;DHT22;11787;52.018;8.570;2023-08-08T07:06:17;15.30;99.90
23237;DHT22;11787;52.018;8.570;2023-08-08T07:08:43;15.30;99.90
23237;DHT22;11787;52.018;8.570;2023-08-08T07:11:09;15.40;99.90
23237;DHT22;11787;52.018;8.570;2023-08-08T07:13:34;15.40;99.90
23237;DHT22;11787;52.018;8.570;2023-08-08T07:16:00;15.40;99.90
23237;DHT22;11787;52.018;8.570;2023-08-08T07:18:26;15.40;99.90
23237;DHT22;11787;52.018;8.570;2023-08-08T07:20:51;15.40;99.90
23237;DHT22;11787;52.018;8.570;2023-08-08T07:23:17;15.30;99.90
23237;DHT22;11787;52.018;8.570;2023-08-08T07:25:43;15.30;99.90
23237;DHT22;11787;52.018;8.570;2023-08-08T07:28:08;15.30;99.90
23237;DHT22;11787;52.018;8.570;2023-08-08T07:30:35;15.40;99.90
23237;DHT22;11787;52.018;8.570;2023-08-08T07:33:00;15.50;99.90
23237;DHT22;11787;52.018;8.570;2023-08-08T07:35:26;15.50;99.90
23237;DHT22;11787;52.018;8.570;2023-08-08T07:37:52;15.50;99.90
23237;DHT22;11787;52.018;8.570;2023-08-08T07:40:18;15.40;99.90
23237;DHT22;11787;52.018;8.570;2023-08-08T07:42:44;15.40;99.90
23237;DHT22;11787;52.018;8.570;2023-08-08T07:45:10;15.50;99.90
23237;DHT22;11787;52.018;8.570;2023-08-08T07:47:35;15.50;99.90
23237;DHT22;11787;52.018;8.570;2023-08-08T07:50:01;15.50;99.90
23237;DHT22;11787;52.018;8.570;2023-08-08T07:52:27;15.50;99.90
23237;DHT22;11787;52.018;8.570;2023-08-08T07:54:52;15.60;99.90
23237;DHT22;11787;52.018;8.570;2023-08-08T07:57:18;15.70;99.90
23237;DHT22;11787;52.018;8.570;2023-08-08T07:59:43;15.70;99.90
23237;DHT22;11787;52.018;8.570;2023-08-08T08:02:09;15.60;99.90
23237;DHT22;11787;52.018;8.570;2023-08-08T08:04:34;15.60;99.90
23237;DHT22;11787;52.018;8.570;2023-08-08T08:07:00;15.80;99.90
23237;DHT22;11787;52.018;8.570;2023-08-08T08:09:26;15.90;99.90
23237;DHT22;11787;52.018;8.570;2023-08-08T08:11:51;15.90;99.90
23237;DHT22;11787;52.018;8.570;2023-08-08T08:14:17;15.80;99.90
23237;DHT22;11787;52.018;8.570;2023-08-08T08:16:42;15.80;99.90
23237;DHT22;11787;52.018;8.570;2023-08-08T08:19:08;15.80;99.90
23237;DHT22;11787;52.018;8.570;2023-08-08T08:21:33;15.80;99.90
23237;DHT22;11787;52.018;8.570;2023-08-08T08:23:59;15.80;99.90
23237;DHT22;11787;52.018;8.570;2023-08-08T08:26:25;15.80;99.90
23237;DHT22;11787;52.018;8.570;2023-08-08T08:28:50;15.70;99.90
23237;DHT22;11787;52.018;8.570;2023-08-08T08:31:16;15.60;99.90
23237;DHT22;11787;52.018;8.570;2023-08-08T08:33:41;15.60;99.90
23237;DHT22;11787;52.018;8.570;2023-08-08T08:36:07;15.60;99.90
23237;DHT22;11787;52.018;8.570;2023-08-08T08:38:32;15.60;99.90
23237;DHT22;11787;52.018;8.570;2023-08-08T08:40:57;15.80;99.90
23237;DHT22;11787;52.018;8.570;2023-08-08T08:43:23;16.10;99.90
23237;DHT22;11787;52.018;8.570;2023-08-08T08:45:50;16.30;99.90
23237;DHT22;11787;52.018;8.570;2023-08-08T08:48:16;16.30;99.90
23237;DHT22;11787;52.018;8.570;2023-08-08T08:50:42;16.30;99.90
23237;DHT22;11787;52.018;8.570;2023-08-08T08:53:09;16.40;99.90
23237;DHT22;11787;52.018;8.570;2023-08-08T08:55:35;16.30;99.90
23237;DHT22;11787;52.018;8.570;2023-08-08T08:58:00;16.10;99.90
23237;DHT22;11787;52.018;8.570;2023-08-08T09:00:26;16.00;99.90
23237;DHT22;11787;52.018;8.570;2023-08-08T09:02:52;15.80;99.90
23237;DHT22;11787;52.018;8.570;2023-08-08T09:05:20;15.80;99.90
23237;DHT22;11787;52.018;8.570;2023-08-08T09:07:47;15.80;99.90
23237;DHT22;11787;52.018;8.570;2023-08-08T09:10:14;15.70;99.90
23237;DHT22;11787;52.018;8.570;2023-08-08T09:12:40;15.60;99.90
23237;DHT22;11787;52.018;8.570;2023-08-08T09:15:05;15.70;99.90
23237;DHT22;11787;52.018;8.570;2023-08-08T09:17:31;15.60;99.90
23237;DHT22;11787;52.018;8.570;2023-08-08T09:19:57;15.60;99.90
23237;DHT22;11787;52.018;8.570;2023-08-08T09:22:24;15.70;99.90
23237;DHT22;11787;52.018;8.570;2023-08-08T09:24:50;15.90;99.90
23237;DHT22;11787;52.018;8.570;2023-08-08T09:27:15;16.30;99.90
23237;DHT22;11787;52.018;8.570;2023-08-08T09:29:41;16.70;99.90
23237;DHT22;11787;52.018;8.570;2023-08-08T09:32:07;17.00;99.90
23237;DHT22;11787;52.018;8.570;2023-08-08T09:34:32;17.30;99.90
23237;DHT22;11787;52.018;8.570;2023-08-08T09:36:58;17.50;99.90
23237;DHT22;11787;52.018;8.570;2023-08-08T09:39:25;17.70;99.90
23237;DHT22;11787;52.018;8.570;2023-08-08T09:41:51;17.70;99.90
23237;DHT22;11787;52.018;8.570;2023-08-08T09:44:16;17.80;99.90
23237;DHT22;11787;52.018;8.570;2023-08-08T09:46:42;18.20;99.90
23237;DHT22;11787;52.018;8.570;2023-08-08T09:49:08;18.30;99.90
23237;DHT22;11787;52.018;8.570;2023-08-08T09:51:35;18.20;99.90
23237;DHT22;11787;52.018;8.570;2023-08-08T09:54:00;18.20;99.90
23237;DHT22;11787;52.018;8.570;2023-08-08T09:56:26;18.00;99.90
23237;DHT22;11787;52.018;8.570;2023-08-08T09:58:53;17.80;99.90
23237;DHT22;11787;52.018;8.570;2023-08-08T10:01:19;17.60;99.90
23237;DHT22;11787;52.018;8.570;2023-08-08T10:03:45;17.40;99.90
23237;DHT22;11787;52.018;8.570;2023-08-08T10:06:10;17.50;99.90
23237;DHT22;11787;52.018;8.570;2023-08-08T10:08:36;17.60;99.90
23237;DHT22;11787;52.018;8.570;2023-08-08T10:11:02;17.70;99.90
23237;DHT22;11787;52.018;8.570;2023-08-08T10:13:28;17.80;99.90
23237;DHT22;11787;52.018;8.570;2023-08-08T10:15:53;18.00;99.90
23237;DHT22;11787;52.018;8.570;2023-08-08T10:18:22;18.60;99.90
23237;DHT22;11787;52.018;8.570;2023-08-08T10:20:49;18.80;99.90
23237;DHT22;11787;52.018;8.570;2023-08-08T10:23:15;18.80;99.90
23237;DHT22;11787;52.018;8.570;2023-08-08T10:25:44;18.60;99.90
23237;DHT22;11787;52.018;8.570;2023-08-08T10:28:11;18.20;99.90
23237;DHT22;11787;52.018;8.570;2023-08-08T10:30:48;18.10;99.90
23237;DHT22;11787;52.018;8.570;2023-08-08T10:33:15;18.30;99.90
23237;DHT22;11787;52.018;8.570;2023-08-08T10:35:41;18.70;99.90
23237;DHT22;11787;52.018;8.570;2023-08-08T10:38:08;19.00;99.90
23237;DHT22;11787;52.018;8.570;2023-08-08T10:40:33;19.20;99.90
23237;DHT22;11787;52.018;8.570;2023-08-08T10:42:59;19.70;99.90
23237;DHT22;11787;52.018;8.570;2023-08-08T10:45:28;19.80;99.90
23237;DHT22;11787;52.018;8.570;2023-08-08T10:47:54;19.60;99.90
23237;DHT22;11787;52.018;8.570;2023-08-08T10:50:23;19.50;99.90
23237;DHT22;11787;52.018;8.570;2023-08-08T10:55:57;18.90;99.90
23237;DHT22;11787;52.018;8.570;2023-08-08T10:58:10;18.60;99.90
23237;DHT22;11787;52.018;8.570;2023-08-08T11:00:36;18.40;99.90
23237;DHT22;11787;52.018;8.570;2023-08-08T11:03:02;18.40;99.90
23237;DHT22;11787;52.018;8.570;2023-08-08T11:05:30;18.40;99.90
23237;DHT22;11787;52.018;8.570;2023-08-08T11:07:56;18.40;99.90
23237;DHT22;11787;52.018;8.570;2023-08-08T11:10:21;18.30;99.90
23237;DHT22;11787;52.018;8.570;2023-08-08T11:15:25;18.40;99.90
23237;DHT22;11787;52.018;8.570;2023-08-08T11:17:52;18.60;99.90
23237;DHT22;11787;52.018;8.570;2023-08-08T11:20:18;18.70;99.90
23237;DHT22;11787;52.018;8.570;2023-08-08T11:22:43;18.70;99.90
23237;DHT22;11787;52.018;8.570;2023-08-08T11:25:09;18.70;99.90
23237;DHT22;11787;52.018;8.570;2023-08-08T11:27:34;19.00;99.90
23237;DHT22;11787;52.018;8.570;2023-08-08T11:30:00;19.30;99.90
23237;DHT22;11787;52.018;8.570;2023-08-08T11:32:25;19.50;99.90
23237;DHT22;11787;52.018;8.570;2023-08-08T11:34:54;19.80;99.90
23237;DHT22;11787;52.018;8.570;2023-08-08T11:37:19;19.70;99.90
23237;DHT22;11787;52.018;8.570;2023-08-08T11:39:45;19.80;99.90
23237;DHT22;11787;52.018;8.570;2023-08-08T11:42:11;19.50;99.90
23237;DHT22;11787;52.018;8.570;2023-08-08T11:44:36;19.30;99.90
23237;DHT22;11787;52.018;8.570;2023-08-08T11:47:02;19.40;99.90
23237;DHT22;11787;52.018;8.570;2023-08-08T11:49:28;19.20;99.90
23237;DHT22;11787;52.018;8.570;2023-08-08T11:51:54;19.20;99.90
23237;DHT22;11787;52.018;8.570;2023-08-08T11:54:21;19.30;99.90
23237;DHT22;11787;52.018;8.570;2023-08-08T11:56:46;19.50;99.90
23237;DHT22;11787;52.018;8.570;2023-08-08T11:59:11;19.40;99.90
23237;DHT22;11787;52.018;8.570;2023-08-08T12:01:37;19.30;99.90
23237;DHT22;11787;52.018;8.570;2023-08-08T12:04:07;19.20;99.90
23237;DHT22;11787;52.018;8.570;2023-08-08T12:06:32;19.00;99.90
23237;DHT22;11787;52.018;8.570;2023-08-08T12:09:00;19.10;99.90
23237;DHT22;11787;52.018;8.570;2023-08-08T12:11:27;19.00;99.90
23237;DHT22;11787;52.018;8.570;2023-08-08T12:13:57;18.90;99.90
23237;DHT22;11787;52.018;8.570;2023-08-08T12:16:27;18.80;99.90
23237;DHT22;11787;52.018;8.570;2023-08-08T12:18:53;18.70;99.90
23237;DHT22;11787;52.018;8.570;2023-08-08T12:21:18;18.70;99.90
23237;DHT22;11787;52.018;8.570;2023-08-08T12:23:44;18.70;99.90
23237;DHT22;11787;52.018;8.570;2023-08-08T12:26:09;18.80;99.90
23237;DHT22;11787;52.018;8.570;2023-08-08T12:28:35;18.90;99.90
23237;DHT22;11787;52.018;8.570;2023-08-08T12:31:00;19.10;99.90
23237;DHT22;11787;52.018;8.570;2023-08-08T12:33:26;19.30;99.90
23237;DHT22;11787;52.018;8.570;2023-08-08T12:35:52;19.50;99.90
23237;DHT22;11787;52.018;8.570;2023-08-08T12:38:18;19.70;99.90
23237;DHT22;11787;52.018;8.570;2023-08-08T12:40:44;19.90;99.90
23237;DHT22;11787;52.018;8.570;2023-08-08T12:43:09;19.80;99.90
23237;DHT22;11787;52.018;8.570;2023-08-08T12:45:36;19.80;99.90
23237;DHT22;11787;52.018;8.570;2023-08-08T12:48:01;20.10;99.90
23237;DHT22;11787;52.018;8.570;2023-08-08T12:50:27;20.50;99.90
23237;DHT22;11787;52.018;8.570;2023-08-08T12:52:53;20.80;99.90
23237;DHT22;11787;52.018;8.570;2023-08-08T12:55:19;21.00;99.90
23237;DHT22;11787;52.018;8.570;2023-08-08T12:57:45;20.90;99.90
23237;DHT22;11787;52.018;8.570;2023-08-08T13:00:10;20.70;99.90
23237;DHT22;11787;52.018;8.570;2023-08-08T13:02:37;20.60;99.90
23237;DHT22;11787;52.018;8.570;2023-08-08T13:05:03;20.40;99.90
23237;DHT22;11787;52.018;8.570;2023-08-08T13:07:29;20.20;99.90
23237;DHT22;11787;52.018;8.570;2023-08-08T13:09:54;20.10;99.90
23237;DHT22;11787;52.018;8.570;2023-08-08T13:12:20;20.10;99.90
23237;DHT22;11787;52.018;8.570;2023-08-08T13:14:46;19.80;99.90
23237;DHT22;11787;52.018;8.570;2023-08-08T13:17:12;19.70;99.90
23237;DHT22;11787;52.018;8.570;2023-08-08T13:19:37;19.60;99.90
23237;DHT22;11787;52.018;8.570;2023-08-08T13:22:03;19.60;99.90
23237;DHT22;11787;52.018;8.570;2023-08-08T13:24:28;19.70;99.90
23237;DHT22;11787;52.018;8.570;2023-08-08T13:26:54;19.70;99.90
23237;DHT22;11787;52.018;8.570;2023-08-08T13:29:19;19.60;99.90
23237;DHT22;11787;52.018;8.570;2023-08-08T13:31:45;19.70;99.90
23237;DHT22;11787;52.018;8.570;2023-08-08T13:34:10;19.80;99.90
23237;DHT22;11787;52.018;8.570;2023-08-08T13:36:36;19.70;99.90
23237;DHT22;11787;52.018;8.570;2023-08-08T13:39:01;19.60;99.90
23237;DHT22;11787;52.018;8.570;2023-08-08T13:41:27;19.50;99.90
23237;DHT22;11787;52.018;8.570;2023-08-08T13:43:52;19.30;99.90
23237;DHT22;11787;52.018;8.570;2023-08-08T13:46:18;19.40;99.90
23237;DHT22;11787;52.018;8.570;2023-08-08T13:48:43;19.30;99.90
23237;DHT22;11787;52.018;8.570;2023-08-08T13:51:09;19.10;99.90
23237;DHT22;11787;52.018;8.570;2023-08-08T13:53:34;19.10;99.90
23237;DHT22;11787;52.018;8.570;2023-08-08T13:56:00;19.10;99.90
23237;DHT22;11787;52.018;8.570;2023-08-08T13:58:25;19.30;99.90
23237;DHT22;11787;52.018;8.570;2023-08-08T14:00:51;19.50;99.90
23237;DHT22;11787;52.018;8.570;2023-08-08T14:03:17;19.60;99.90
23237;DHT22;11787;52.018;8.570;2023-08-08T14:05:42;19.70;99.90
23237;DHT22;11787;52.018;8.570;2023-08-08T14:08:08;19.60;99.90
23237;DHT22;11787;52.018;8.570;2023-08-08T14:10:34;19.60;99.90
23237;DHT22;11787;52.018;8.570;2023-08-08T14:13:00;19.70;99.90
23237;DHT22;11787;52.018;8.570;2023-08-08T14:15:25;19.80;99.90
23237;DHT22;11787;52.018;8.570;2023-08-08T14:17:51;19.50;99.90
23237;DHT22;11787;52.018;8.570;2023-08-08T14:20:16;19.40;99.90
23237;DHT22;11787;52.018;8.570;2023-08-08T14:22:44;19.50;99.90
23237;DHT22;11787;52.018;8.570;2023-08-08T14:25:09;19.60;99.90
23237;DHT22;11787;52.018;8.570;2023-08-08T14:27:35;19.90;99.90
23237;DHT22;11787;52.018;8.570;2023-08-08T14:30:01;20.20;99.90
23237;DHT22;11787;52.018;8.570;2023-08-08T14:32:27;20.20;99.90
23237;DHT22;11787;52.018;8.570;2023-08-08T14:34:52;20.10;99.90
23237;DHT22;11787;52.018;8.570;2023-08-08T14:37:18;19.90;99.90
23237;DHT22;11787;52.018;8.570;2023-08-08T14:39:43;19.80;99.90
23237;DHT22;11787;52.018;8.570;2023-08-08T14:42:09;19.90;99.90
23237;DHT22;11787;52.018;8.570;2023-08-08T14:44:34;19.70;99.90
23237;DHT22;11787;52.018;8.570;2023-08-08T14:47:00;19.80;99.90
23237;DHT22;11787;52.018;8.570;2023-08-08T14:49:25;19.60;99.90
23237;DHT22;11787;52.018;8.570;2023-08-08T14:51:51;19.60;99.90
23237;DHT22;11787;52.018;8.570;2023-08-08T14:54:16;19.40;99.90
23237;DHT22;11787;52.018;8.570;2023-08-08T14:56:42;19.40;99.90
23237;DHT22;11787;52.018;8.570;2023-08-08T14:59:07;19.60;99.90
23237;DHT22;11787;52.018;8.570;2023-08-08T15:01:34;19.80;99.90
23237;DHT22;11787;52.018;8.570;2023-08-08T15:03:59;20.00;99.90
23237;DHT22;11787;52.018;8.570;2023-08-08T15:06:25;20.10;99.90
23237;DHT22;11787;52.018;8.570;2023-08-08T15:08:50;20.00;99.90
23237;DHT22;11787;52.018;8.570;2023-08-08T15:11:16;19.90;99.90
23237;DHT22;11787;52.018;8.570;2023-08-08T15:13:42;20.00;99.90
23237;DHT22;11787;52.018;8.570;2023-08-08T15:16:07;20.00;99.90
23237;DHT22;11787;52.018;8.570;2023-08-08T15:18:33;19.90;99.90
23237;DHT22;11787;52.018;8.570;2023-08-08T15:20:59;19.80;99.90
23237;DHT22;11787;52.018;8.570;2023-08-08T15:23:24;19.90;99.90
23237;DHT22;11787;52.018;8.570;2023-08-08T15:25:50;19.80;99.90
23237;DHT22;11787;52.018;8.570;2023-08-08T15:28:15;19.80;99.90